sensor_id;sensor_type;location;lat;lon;timestamp;P1;durP1;ratioP1;P2;durP2;ratioP2
52742;SDS011;55583;53.012;6.556;2022-09-13T00:00:47;23.95;;;17.40;;
52742;SDS011;55583;53.012;6.556;2022-09-13T00:03:17;25.70;;;19.35;;
52742;SDS011;55583;53.012;6.556;2022-09-13T00:05:44;22.30;;;17.13;;
52742;SDS011;55583;53.012;6.556;2022-09-13T00:08:10;24.95;;;17.38;;
52742;SDS011;55583;53.012;6.556;2022-09-13T00:10:37;27.80;;;18.50;;
52742;SDS011;55583;53.012;6.556;2022-09-13T00:13:05;27.95;;;19.33;;
52742;SDS011;55583;53.012;6.556;2022-09-13T00:15:32;26.95;;;18.63;;
52742;SDS011;55583;53.012;6.556;2022-09-13T00:17:58;29.33;;;19.75;;
52742;SDS011;55583;53.012;6.556;2022-09-13T00:20:24;34.22;;;20.83;;
52742;SDS011;55583;53.012;6.556;2022-09-13T00:22:50;30.15;;;19.67;;
52742;SDS011;55583;53.012;6.556;2022-09-13T00:25:15;30.42;;;20.67;;
52742;SDS011;55583;53.012;6.556;2022-09-13T00:27:41;33.67;;;22.52;;
52742;SDS011;55583;53.012;6.556;2022-09-13T00:30:09;32.60;;;22.77;;
52742;SDS011;55583;53.012;6.556;2022-09-13T00:32:35;34.30;;;21.55;;
52742;SDS011;55583;53.012;6.556;2022-09-13T00:35:02;31.38;;;20.60;;
52742;SDS011;55583;53.012;6.556;2022-09-13T00:37:28;33.38;;;21.40;;
52742;SDS011;55583;53.012;6.556;2022-09-13T00:39:54;35.40;;;20.35;;
52742;SDS011;55583;53.012;6.556;2022-09-13T00:42:38;31.75;;;20.42;;
52742;SDS011;55583;53.012;6.556;2022-09-13T00:50:07;35.13;;;23.20;;
52742;SDS011;55583;53.012;6.556;2022-09-13T00:52:40;30.13;;;23.13;;
52742;SDS011;55583;53.012;6.556;2022-09-13T00:55:20;40.33;;;25.35;;
52742;SDS011;55583;53.012;6.556;2022-09-13T00:57:50;34.17;;;22.85;;
52742;SDS011;55583;53.012;6.556;2022-09-13T01:00:19;38.72;;;23.40;;
52742;SDS011;55583;53.012;6.556;2022-09-13T01:02:46;37.95;;;23.88;;
52742;SDS011;55583;53.012;6.556;2022-09-13T01:05:17;35.50;;;23.80;;
52742;SDS011;55583;53.012;6.556;2022-09-13T01:07:47;47.03;;;25.77;;
52742;SDS011;55583;53.012;6.556;2022-09-13T01:10:13;37.60;;;23.77;;
52742;SDS011;55583;53.012;6.556;2022-09-13T01:12:47;36.25;;;22.60;;
52742;SDS011;55583;53.012;6.556;2022-09-13T01:15:17;38.33;;;22.15;;
52742;SDS011;55583;53.012;6.556;2022-09-13T01:17:43;38.47;;;24.23;;
52742;SDS011;55583;53.012;6.556;2022-09-13T01:20:09;34.90;;;22.65;;
52742;SDS011;55583;53.012;6.556;2022-09-13T01:23:00;36.30;;;21.65;;
52742;SDS011;55583;53.012;6.556;2022-09-13T01:34:14;38.20;;;23.65;;
52742;SDS011;55583;53.012;6.556;2022-09-13T01:36:58;39.53;;;23.95;;
52742;SDS011;55583;53.012;6.556;2022-09-13T01:45:38;40.38;;;24.65;;
52742;SDS011;55583;53.012;6.556;2022-09-13T01:48:21;42.28;;;24.90;;
52742;SDS011;55583;53.012;6.556;2022-09-13T01:51:02;40.67;;;25.10;;
52742;SDS011;55583;53.012;6.556;2022-09-13T01:53:38;43.78;;;27.15;;
52742;SDS011;55583;53.012;6.556;2022-09-13T01:56:24;41.58;;;25.85;;
52742;SDS011;55583;53.012;6.556;2022-09-13T01:58:56;40.42;;;25.67;;
52742;SDS011;55583;53.012;6.556;2022-09-13T02:01:31;43.88;;;25.23;;
52742;SDS011;55583;53.012;6.556;2022-09-13T02:04:10;47.97;;;26.85;;
52742;SDS011;55583;53.012;6.556;2022-09-13T02:09:25;47.17;;;27.30;;
52742;SDS011;55583;53.012;6.556;2022-09-13T02:12:05;46.67;;;30.13;;
52742;SDS011;55583;53.012;6.556;2022-09-13T02:14:38;45.33;;;26.02;;
52742;SDS011;55583;53.012;6.556;2022-09-13T02:17:06;50.95;;;30.33;;
52742;SDS011;55583;53.012;6.556;2022-09-13T02:22:07;54.35;;;31.65;;
52742;SDS011;55583;53.012;6.556;2022-09-13T02:24:38;45.28;;;28.55;;
52742;SDS011;55583;53.012;6.556;2022-09-13T02:27:07;51.28;;;31.00;;
52742;SDS011;55583;53.012;6.556;2022-09-13T02:29:38;54.38;;;30.92;;
52742;SDS011;55583;53.012;6.556;2022-09-13T02:32:11;51.75;;;32.13;;
52742;SDS011;55583;53.012;6.556;2022-09-13T02:35:11;61.75;;;33.13;;
52742;SDS011;55583;53.012;6.556;2022-09-13T02:37:59;59.60;;;35.50;;
52742;SDS011;55583;53.012;6.556;2022-09-13T02:40:29;49.35;;;28.83;;
52742;SDS011;55583;53.012;6.556;2022-09-13T02:43:04;68.32;;;36.22;;
52742;SDS011;55583;53.012;6.556;2022-09-13T02:45:37;63.17;;;36.33;;
52742;SDS011;55583;53.012;6.556;2022-09-13T02:48:09;69.10;;;37.13;;
52742;SDS011;55583;53.012;6.556;2022-09-13T02:50:48;73.60;;;36.67;;
52742;SDS011;55583;53.012;6.556;2022-09-13T03:01:43;67.53;;;37.15;;
52742;SDS011;55583;53.012;6.556;2022-09-13T03:04:13;60.65;;;35.45;;
52742;SDS011;55583;53.012;6.556;2022-09-13T03:06:39;62.53;;;36.53;;
52742;SDS011;55583;53.012;6.556;2022-09-13T03:09:05;63.72;;;36.33;;
52742;SDS011;55583;53.012;6.556;2022-09-13T03:11:35;57.63;;;35.92;;
52742;SDS011;55583;53.012;6.556;2022-09-13T03:14:17;60.70;;;34.15;;
52742;SDS011;55583;53.012;6.556;2022-09-13T03:31:03;57.45;;;32.22;;
52742;SDS011;55583;53.012;6.556;2022-09-13T03:34:39;59.88;;;32.28;;
52742;SDS011;55583;53.012;6.556;2022-09-13T03:37:02;51.83;;;31.02;;
52742;SDS011;55583;53.012;6.556;2022-09-13T03:42:31;53.92;;;30.77;;
52742;SDS011;55583;53.012;6.556;2022-09-13T03:45:05;58.50;;;32.47;;
52742;SDS011;55583;53.012;6.556;2022-09-13T03:47:34;60.97;;;31.38;;
52742;SDS011;55583;53.012;6.556;2022-09-13T03:50:03;56.97;;;30.98;;
52742;SDS011;55583;53.012;6.556;2022-09-13T03:52:31;49.72;;;31.90;;
52742;SDS011;55583;53.012;6.556;2022-09-13T03:54:57;55.88;;;31.90;;
52742;SDS011;55583;53.012;6.556;2022-09-13T03:57:23;51.78;;;31.38;;
52742;SDS011;55583;53.012;6.556;2022-09-13T03:59:50;52.35;;;31.30;;
52742;SDS011;55583;53.012;6.556;2022-09-13T04:02:18;55.75;;;31.85;;
52742;SDS011;55583;53.012;6.556;2022-09-13T04:04:44;47.67;;;27.80;;
52742;SDS011;55583;53.012;6.556;2022-09-13T04:07:12;40.20;;;23.77;;
52742;SDS011;55583;53.012;6.556;2022-09-13T04:09:39;40.33;;;25.90;;
52742;SDS011;55583;53.012;6.556;2022-09-13T04:12:05;41.80;;;23.67;;
52742;SDS011;55583;53.012;6.556;2022-09-13T04:14:31;42.70;;;25.20;;
52742;SDS011;55583;53.012;6.556;2022-09-13T04:16:57;30.63;;;19.77;;
52742;SDS011;55583;53.012;6.556;2022-09-13T04:19:23;37.20;;;23.10;;
52742;SDS011;55583;53.012;6.556;2022-09-13T04:21:50;38.55;;;24.35;;
52742;SDS011;55583;53.012;6.556;2022-09-13T04:24:17;43.13;;;23.73;;
52742;SDS011;55583;53.012;6.556;2022-09-13T04:26:49;33.47;;;20.95;;
52742;SDS011;55583;53.012;6.556;2022-09-13T04:29:16;35.45;;;22.45;;
52742;SDS011;55583;53.012;6.556;2022-09-13T04:31:42;37.95;;;19.83;;
52742;SDS011;55583;53.012;6.556;2022-09-13T04:34:09;29.50;;;18.02;;
52742;SDS011;55583;53.012;6.556;2022-09-13T04:36:34;30.90;;;16.90;;
52742;SDS011;55583;53.012;6.556;2022-09-13T04:39:00;25.42;;;16.58;;
52742;SDS011;55583;53.012;6.556;2022-09-13T04:41:26;27.50;;;16.00;;
52742;SDS011;55583;53.012;6.556;2022-09-13T04:43:53;24.58;;;16.23;;
52742;SDS011;55583;53.012;6.556;2022-09-13T04:46:19;23.92;;;15.82;;
52742;SDS011;55583;53.012;6.556;2022-09-13T04:48:50;21.08;;;15.20;;
52742;SDS011;55583;53.012;6.556;2022-09-13T04:51:16;25.13;;;13.77;;
52742;SDS011;55583;53.012;6.556;2022-09-13T04:53:44;27.27;;;15.27;;
52742;SDS011;55583;53.012;6.556;2022-09-13T04:56:10;25.02;;;14.07;;
52742;SDS011;55583;53.012;6.556;2022-09-13T04:58:38;17.75;;;12.57;;
52742;SDS011;55583;53.012;6.556;2022-09-13T05:01:04;20.50;;;13.52;;
52742;SDS011;55583;53.012;6.556;2022-09-13T05:03:32;23.77;;;13.77;;
52742;SDS011;55583;53.012;6.556;2022-09-13T05:08:37;26.92;;;11.70;;
52742;SDS011;55583;53.012;6.556;2022-09-13T05:11:04;18.85;;;11.45;;
52742;SDS011;55583;53.012;6.556;2022-09-13T05:13:31;16.75;;;10.20;;
52742;SDS011;55583;53.012;6.556;2022-09-13T05:15:58;17.70;;;10.30;;
52742;SDS011;55583;53.012;6.556;2022-09-13T05:18:30;13.20;;;8.77;;
52742;SDS011;55583;53.012;6.556;2022-09-13T05:20:58;13.80;;;8.80;;
52742;SDS011;55583;53.012;6.556;2022-09-13T05:23:25;12.38;;;7.38;;
52742;SDS011;55583;53.012;6.556;2022-09-13T05:25:54;12.10;;;8.02;;
52742;SDS011;55583;53.012;6.556;2022-09-13T05:28:26;11.65;;;6.63;;
52742;SDS011;55583;53.012;6.556;2022-09-13T05:30:53;9.90;;;6.28;;
52742;SDS011;55583;53.012;6.556;2022-09-13T05:33:23;10.68;;;6.25;;
52742;SDS011;55583;53.012;6.556;2022-09-13T05:35:53;12.63;;;6.75;;
52742;SDS011;55583;53.012;6.556;2022-09-13T05:38:19;11.32;;;6.25;;
52742;SDS011;55583;53.012;6.556;2022-09-13T05:40:45;9.52;;;5.05;;
52742;SDS011;55583;53.012;6.556;2022-09-13T05:43:11;8.60;;;4.90;;
52742;SDS011;55583;53.012;6.556;2022-09-13T05:45:37;12.95;;;4.88;;
52742;SDS011;55583;53.012;6.556;2022-09-13T05:48:04;10.00;;;4.45;;
52742;SDS011;55583;53.012;6.556;2022-09-13T05:50:29;9.18;;;4.32;;
52742;SDS011;55583;53.012;6.556;2022-09-13T05:52:55;8.75;;;4.05;;
52742;SDS011;55583;53.012;6.556;2022-09-13T05:55:21;12.23;;;3.95;;
52742;SDS011;55583;53.012;6.556;2022-09-13T05:57:47;8.40;;;4.32;;
52742;SDS011;55583;53.012;6.556;2022-09-13T06:00:14;12.80;;;5.50;;
52742;SDS011;55583;53.012;6.556;2022-09-13T06:02:40;13.45;;;4.10;;
52742;SDS011;55583;53.012;6.556;2022-09-13T06:05:07;9.77;;;4.30;;
52742;SDS011;55583;53.012;6.556;2022-09-13T06:07:34;7.28;;;3.40;;
52742;SDS011;55583;53.012;6.556;2022-09-13T06:10:01;8.50;;;3.45;;
52742;SDS011;55583;53.012;6.556;2022-09-13T06:12:28;6.72;;;4.40;;
52742;SDS011;55583;53.012;6.556;2022-09-13T06:14:54;12.43;;;4.22;;
52742;SDS011;55583;53.012;6.556;2022-09-13T06:17:20;7.95;;;4.28;;
52742;SDS011;55583;53.012;6.556;2022-09-13T06:19:45;9.80;;;4.28;;
52742;SDS011;55583;53.012;6.556;2022-09-13T06:22:11;9.07;;;3.80;;
52742;SDS011;55583;53.012;6.556;2022-09-13T06:24:36;10.68;;;4.82;;
52742;SDS011;55583;53.012;6.556;2022-09-13T06:27:05;9.30;;;3.55;;
52742;SDS011;55583;53.012;6.556;2022-09-13T06:29:30;9.98;;;4.15;;
52742;SDS011;55583;53.012;6.556;2022-09-13T06:31:56;8.80;;;3.90;;
52742;SDS011;55583;53.012;6.556;2022-09-13T06:34:22;11.75;;;2.75;;
52742;SDS011;55583;53.012;6.556;2022-09-13T06:36:47;6.28;;;2.85;;
52742;SDS011;55583;53.012;6.556;2022-09-13T06:39:13;12.35;;;3.00;;
52742;SDS011;55583;53.012;6.556;2022-09-13T06:41:39;8.00;;;3.78;;
52742;SDS011;55583;53.012;6.556;2022-09-13T06:44:05;10.90;;;3.53;;
52742;SDS011;55583;53.012;6.556;2022-09-13T06:46:31;16.98;;;3.90;;
52742;SDS011;55583;53.012;6.556;2022-09-13T06:48:59;9.95;;;3.08;;
52742;SDS011;55583;53.012;6.556;2022-09-13T06:51:27;10.90;;;3.45;;
52742;SDS011;55583;53.012;6.556;2022-09-13T06:53:56;6.75;;;3.15;;
52742;SDS011;55583;53.012;6.556;2022-09-13T06:56:23;7.63;;;2.83;;
52742;SDS011;55583;53.012;6.556;2022-09-13T06:58:54;10.68;;;2.88;;
52742;SDS011;55583;53.012;6.556;2022-09-13T07:01:22;6.63;;;3.35;;
52742;SDS011;55583;53.012;6.556;2022-09-13T07:03:51;8.50;;;2.95;;
52742;SDS011;55583;53.012;6.556;2022-09-13T07:06:23;10.70;;;3.10;;
52742;SDS011;55583;53.012;6.556;2022-09-13T07:08:54;5.78;;;2.55;;
52742;SDS011;55583;53.012;6.556;2022-09-13T07:11:22;11.82;;;2.95;;
52742;SDS011;55583;53.012;6.556;2022-09-13T07:13:52;8.80;;;3.00;;
52742;SDS011;55583;53.012;6.556;2022-09-13T07:16:20;9.63;;;2.60;;
52742;SDS011;55583;53.012;6.556;2022-09-13T07:18:54;3.47;;;2.60;;
52742;SDS011;55583;53.012;6.556;2022-09-13T07:21:21;6.93;;;2.92;;
52742;SDS011;55583;53.012;6.556;2022-09-13T07:23:47;7.80;;;2.72;;
52742;SDS011;55583;53.012;6.556;2022-09-13T07:26:13;11.70;;;3.40;;
52742;SDS011;55583;53.012;6.556;2022-09-13T07:28:43;12.98;;;2.70;;
52742;SDS011;55583;53.012;6.556;2022-09-13T07:31:14;5.88;;;2.40;;
52742;SDS011;55583;53.012;6.556;2022-09-13T07:33:42;10.00;;;2.78;;
52742;SDS011;55583;53.012;6.556;2022-09-13T07:36:09;13.27;;;2.53;;
52742;SDS011;55583;53.012;6.556;2022-09-13T07:38:37;7.85;;;2.08;;
52742;SDS011;55583;53.012;6.556;2022-09-13T07:41:05;7.72;;;2.75;;
52742;SDS011;55583;53.012;6.556;2022-09-13T07:43:37;7.82;;;1.75;;
52742;SDS011;55583;53.012;6.556;2022-09-13T07:46:10;12.30;;;2.22;;
52742;SDS011;55583;53.012;6.556;2022-09-13T07:48:38;8.05;;;1.80;;
52742;SDS011;55583;53.012;6.556;2022-09-13T07:51:06;4.70;;;1.10;;
52742;SDS011;55583;53.012;6.556;2022-09-13T07:53:34;5.65;;;1.50;;
52742;SDS011;55583;53.012;6.556;2022-09-13T07:56:04;7.05;;;1.27;;
52742;SDS011;55583;53.012;6.556;2022-09-13T07:58:32;10.43;;;1.90;;
52742;SDS011;55583;53.012;6.556;2022-09-13T08:01:00;7.45;;;1.30;;
52742;SDS011;55583;53.012;6.556;2022-09-13T08:03:33;6.32;;;1.45;;
52742;SDS011;55583;53.012;6.556;2022-09-13T08:06:00;4.63;;;1.02;;
52742;SDS011;55583;53.012;6.556;2022-09-13T08:08:27;7.72;;;1.27;;
52742;SDS011;55583;53.012;6.556;2022-09-13T08:10:53;6.53;;;1.42;;
52742;SDS011;55583;53.012;6.556;2022-09-13T08:13:19;4.90;;;1.67;;
52742;SDS011;55583;53.012;6.556;2022-09-13T08:15:45;8.00;;;1.60;;
52742;SDS011;55583;53.012;6.556;2022-09-13T08:18:11;7.85;;;1.30;;
52742;SDS011;55583;53.012;6.556;2022-09-13T08:20:39;6.93;;;1.17;;
52742;SDS011;55583;53.012;6.556;2022-09-13T08:23:05;7.65;;;1.65;;
52742;SDS011;55583;53.012;6.556;2022-09-13T08:25:32;7.97;;;1.17;;
52742;SDS011;55583;53.012;6.556;2022-09-13T08:27:59;3.15;;;1.40;;
52742;SDS011;55583;53.012;6.556;2022-09-13T08:30:25;2.80;;;1.17;;
52742;SDS011;55583;53.012;6.556;2022-09-13T08:32:57;6.28;;;1.33;;
52742;SDS011;55583;53.012;6.556;2022-09-13T08:35:24;7.35;;;1.48;;
52742;SDS011;55583;53.012;6.556;2022-09-13T08:37:49;5.65;;;1.42;;
52742;SDS011;55583;53.012;6.556;2022-09-13T08:40:15;3.60;;;1.17;;
52742;SDS011;55583;53.012;6.556;2022-09-13T08:42:53;2.85;;;0.70;;
52742;SDS011;55583;53.012;6.556;2022-09-13T08:45:30;5.25;;;0.90;;
52742;SDS011;55583;53.012;6.556;2022-09-13T08:47:56;4.13;;;1.15;;
52742;SDS011;55583;53.012;6.556;2022-09-13T08:50:28;4.53;;;0.95;;
52742;SDS011;55583;53.012;6.556;2022-09-13T09:00:48;12.82;;;1.65;;
52742;SDS011;55583;53.012;6.556;2022-09-13T09:05:54;5.85;;;1.10;;
52742;SDS011;55583;53.012;6.556;2022-09-13T09:08:28;7.38;;;1.00;;
52742;SDS011;55583;53.012;6.556;2022-09-13T09:11:00;4.07;;;0.85;;
52742;SDS011;55583;53.012;6.556;2022-09-13T09:13:36;3.38;;;0.85;;
52742;SDS011;55583;53.012;6.556;2022-09-13T09:16:11;6.80;;;1.05;;
52742;SDS011;55583;53.012;6.556;2022-09-13T09:18:53;7.00;;;1.15;;
52742;SDS011;55583;53.012;6.556;2022-09-13T09:21:24;6.38;;;1.15;;
52742;SDS011;55583;53.012;6.556;2022-09-13T09:23:50;6.88;;;1.20;;
52742;SDS011;55583;53.012;6.556;2022-09-13T09:26:18;5.18;;;1.13;;
52742;SDS011;55583;53.012;6.556;2022-09-13T09:28:54;5.65;;;1.20;;
52742;SDS011;55583;53.012;6.556;2022-09-13T09:34:05;5.10;;;1.00;;
52742;SDS011;55583;53.012;6.556;2022-09-13T09:36:40;5.25;;;1.00;;
52742;SDS011;55583;53.012;6.556;2022-09-13T09:39:30;3.33;;;1.10;;
52742;SDS011;55583;53.012;6.556;2022-09-13T09:42:03;8.60;;;0.88;;
52742;SDS011;55583;53.012;6.556;2022-09-13T09:44:42;7.50;;;1.23;;
52742;SDS011;55583;53.012;6.556;2022-09-13T09:47:20;4.93;;;0.60;;
52742;SDS011;55583;53.012;6.556;2022-09-13T09:49:53;6.35;;;1.17;;
52742;SDS011;55583;53.012;6.556;2022-09-13T09:52:41;4.38;;;1.23;;
52742;SDS011;55583;53.012;6.556;2022-09-13T09:57:56;7.43;;;1.13;;
52742;SDS011;55583;53.012;6.556;2022-09-13T10:00:25;3.13;;;0.80;;
52742;SDS011;55583;53.012;6.556;2022-09-13T10:02:55;5.97;;;1.23;;
52742;SDS011;55583;53.012;6.556;2022-09-13T10:05:23;9.52;;;1.15;;
52742;SDS011;55583;53.012;6.556;2022-09-13T10:08:34;5.47;;;1.00;;
52742;SDS011;55583;53.012;6.556;2022-09-13T10:10:57;3.53;;;0.98;;
52742;SDS011;55583;53.012;6.556;2022-09-13T10:13:24;3.53;;;1.02;;
52742;SDS011;55583;53.012;6.556;2022-09-13T10:15:54;2.03;;;0.77;;
52742;SDS011;55583;53.012;6.556;2022-09-13T10:18:28;2.53;;;0.80;;
52742;SDS011;55583;53.012;6.556;2022-09-13T10:23:34;6.05;;;1.10;;
52742;SDS011;55583;53.012;6.556;2022-09-13T10:26:13;2.83;;;0.80;;
52742;SDS011;55583;53.012;6.556;2022-09-13T10:29:12;6.78;;;1.15;;
52742;SDS011;55583;53.012;6.556;2022-09-13T10:31:41;4.38;;;0.98;;
52742;SDS011;55583;53.012;6.556;2022-09-13T10:37:16;2.00;;;0.70;;
52742;SDS011;55583;53.012;6.556;2022-09-13T10:39:35;5.38;;;1.50;;
52742;SDS011;55583;53.012;6.556;2022-09-13T10:42:03;3.33;;;0.98;;
52742;SDS011;55583;53.012;6.556;2022-09-13T10:44:38;5.88;;;1.10;;
52742;SDS011;55583;53.012;6.556;2022-09-13T10:47:19;5.32;;;0.98;;
52742;SDS011;55583;53.012;6.556;2022-09-13T10:49:54;4.23;;;1.43;;
52742;SDS011;55583;53.012;6.556;2022-09-13T10:52:37;4.35;;;1.10;;
52742;SDS011;55583;53.012;6.556;2022-09-13T10:57:42;6.70;;;1.10;;
52742;SDS011;55583;53.012;6.556;2022-09-13T11:00:13;5.63;;;0.93;;
52742;SDS011;55583;53.012;6.556;2022-09-13T11:05:49;3.90;;;1.00;;
52742;SDS011;55583;53.012;6.556;2022-09-13T11:19:53;7.35;;;1.17;;
52742;SDS011;55583;53.012;6.556;2022-09-13T11:31:51;3.95;;;1.17;;
52742;SDS011;55583;53.012;6.556;2022-09-13T11:34:11;5.45;;;1.15;;
52742;SDS011;55583;53.012;6.556;2022-09-13T11:47:54;4.78;;;0.90;;
52742;SDS011;55583;53.012;6.556;2022-09-13T11:55:40;3.92;;;1.05;;
52742;SDS011;55583;53.012;6.556;2022-09-13T11:58:20;3.17;;;0.75;;
52742;SDS011;55583;53.012;6.556;2022-09-13T12:00:52;3.50;;;0.93;;
52742;SDS011;55583;53.012;6.556;2022-09-13T12:03:25;4.45;;;1.20;;
52742;SDS011;55583;53.012;6.556;2022-09-13T12:06:11;3.58;;;0.90;;
52742;SDS011;55583;53.012;6.556;2022-09-13T12:08:45;2.30;;;1.00;;
52742;SDS011;55583;53.012;6.556;2022-09-13T12:11:18;2.92;;;1.15;;
52742;SDS011;55583;53.012;6.556;2022-09-13T12:13:53;6.57;;;1.02;;
52742;SDS011;55583;53.012;6.556;2022-09-13T12:16:24;3.28;;;1.10;;
52742;SDS011;55583;53.012;6.556;2022-09-13T12:21:41;6.60;;;1.15;;
52742;SDS011;55583;53.012;6.556;2022-09-13T12:24:16;5.72;;;1.25;;
52742;SDS011;55583;53.012;6.556;2022-09-13T12:26:47;5.63;;;1.27;;
52742;SDS011;55583;53.012;6.556;2022-09-13T12:29:19;6.13;;;0.95;;
52742;SDS011;55583;53.012;6.556;2022-09-13T12:31:54;7.28;;;1.27;;
52742;SDS011;55583;53.012;6.556;2022-09-13T12:34:26;2.97;;;0.80;;
52742;SDS011;55583;53.012;6.556;2022-09-13T12:39:58;5.30;;;1.10;;
52742;SDS011;55583;53.012;6.556;2022-09-13T13:08:31;6.43;;;1.67;;
52742;SDS011;55583;53.012;6.556;2022-09-13T13:11:10;6.05;;;1.38;;
52742;SDS011;55583;53.012;6.556;2022-09-13T13:13:39;4.63;;;1.23;;
52742;SDS011;55583;53.012;6.556;2022-09-13T13:16:23;6.40;;;1.25;;
52742;SDS011;55583;53.012;6.556;2022-09-13T13:18:50;8.57;;;1.80;;
52742;SDS011;55583;53.012;6.556;2022-09-13T13:21:24;10.27;;;1.20;;
52742;SDS011;55583;53.012;6.556;2022-09-13T13:26:55;3.35;;;1.17;;
52742;SDS011;55583;53.012;6.556;2022-09-13T13:29:30;7.13;;;1.50;;
52742;SDS011;55583;53.012;6.556;2022-09-13T13:36:56;4.82;;;1.48;;
52742;SDS011;55583;53.012;6.556;2022-09-13T13:46:44;7.63;;;1.50;;
52742;SDS011;55583;53.012;6.556;2022-09-13T14:00:17;8.43;;;1.92;;
52742;SDS011;55583;53.012;6.556;2022-09-13T14:11:12;8.45;;;1.70;;
52742;SDS011;55583;53.012;6.556;2022-09-13T14:19:23;8.10;;;1.58;;
52742;SDS011;55583;53.012;6.556;2022-09-13T14:24:46;7.95;;;1.52;;
52742;SDS011;55583;53.012;6.556;2022-09-13T14:27:20;7.60;;;1.42;;
52742;SDS011;55583;53.012;6.556;2022-09-13T14:29:59;6.32;;;1.58;;
52742;SDS011;55583;53.012;6.556;2022-09-13T14:32:29;8.85;;;1.33;;
52742;SDS011;55583;53.012;6.556;2022-09-13T14:35:05;6.65;;;1.52;;
52742;SDS011;55583;53.012;6.556;2022-09-13T14:37:45;6.25;;;1.92;;
52742;SDS011;55583;53.012;6.556;2022-09-13T14:40:18;8.18;;;1.70;;
52742;SDS011;55583;53.012;6.556;2022-09-13T14:42:47;8.85;;;1.77;;
52742;SDS011;55583;53.012;6.556;2022-09-13T14:45:17;4.57;;;1.35;;
52742;SDS011;55583;53.012;6.556;2022-09-13T14:50:32;9.52;;;1.70;;
52742;SDS011;55583;53.012;6.556;2022-09-13T14:53:01;7.93;;;1.63;;
52742;SDS011;55583;53.012;6.556;2022-09-13T14:55:30;3.22;;;1.40;;
52742;SDS011;55583;53.012;6.556;2022-09-13T14:58:00;10.13;;;1.50;;
52742;SDS011;55583;53.012;6.556;2022-09-13T15:00:30;8.13;;;1.50;;
52742;SDS011;55583;53.012;6.556;2022-09-13T15:03:03;8.60;;;1.33;;
52742;SDS011;55583;53.012;6.556;2022-09-13T15:05:36;9.07;;;1.60;;
52742;SDS011;55583;53.012;6.556;2022-09-13T15:11:16;7.28;;;1.65;;
52742;SDS011;55583;53.012;6.556;2022-09-13T15:16:45;5.53;;;1.45;;
52742;SDS011;55583;53.012;6.556;2022-09-13T15:22:10;6.32;;;1.48;;
52742;SDS011;55583;53.012;6.556;2022-09-13T15:24:55;7.43;;;1.42;;
52742;SDS011;55583;53.012;6.556;2022-09-13T15:29:56;7.15;;;2.25;;
52742;SDS011;55583;53.012;6.556;2022-09-13T15:32:34;6.80;;;1.90;;
52742;SDS011;55583;53.012;6.556;2022-09-13T15:35:15;7.97;;;1.40;;
52742;SDS011;55583;53.012;6.556;2022-09-13T15:38:28;4.28;;;1.20;;
52742;SDS011;55583;53.012;6.556;2022-09-13T15:40:56;4.57;;;1.60;;
52742;SDS011;55583;53.012;6.556;2022-09-13T15:43:23;7.00;;;1.63;;
52742;SDS011;55583;53.012;6.556;2022-09-13T15:45:48;8.52;;;2.25;;
52742;SDS011;55583;53.012;6.556;2022-09-13T15:48:35;5.80;;;1.80;;
52742;SDS011;55583;53.012;6.556;2022-09-13T15:53:31;3.83;;;1.08;;
52742;SDS011;55583;53.012;6.556;2022-09-13T15:55:57;5.47;;;1.50;;
52742;SDS011;55583;53.012;6.556;2022-09-13T15:58:22;11.73;;;1.90;;
52742;SDS011;55583;53.012;6.556;2022-09-13T16:00:48;9.85;;;1.85;;
52742;SDS011;55583;53.012;6.556;2022-09-13T16:03:15;6.88;;;1.55;;
52742;SDS011;55583;53.012;6.556;2022-09-13T16:05:41;11.93;;;2.28;;
52742;SDS011;55583;53.012;6.556;2022-09-13T16:08:08;8.07;;;1.75;;
52742;SDS011;55583;53.012;6.556;2022-09-13T16:10:35;6.05;;;1.30;;
52742;SDS011;55583;53.012;6.556;2022-09-13T16:13:01;9.48;;;1.35;;
52742;SDS011;55583;53.012;6.556;2022-09-13T16:15:26;5.93;;;1.15;;
52742;SDS011;55583;53.012;6.556;2022-09-13T16:17:53;5.53;;;1.30;;
52742;SDS011;55583;53.012;6.556;2022-09-13T16:20:18;5.43;;;1.48;;
52742;SDS011;55583;53.012;6.556;2022-09-13T16:22:44;9.38;;;1.60;;
52742;SDS011;55583;53.012;6.556;2022-09-13T16:25:13;7.25;;;1.77;;
52742;SDS011;55583;53.012;6.556;2022-09-13T16:27:42;6.63;;;1.40;;
52742;SDS011;55583;53.012;6.556;2022-09-13T16:30:13;7.22;;;1.55;;
52742;SDS011;55583;53.012;6.556;2022-09-13T16:32:40;6.95;;;1.50;;
52742;SDS011;55583;53.012;6.556;2022-09-13T16:35:06;10.52;;;1.98;;
52742;SDS011;55583;53.012;6.556;2022-09-13T16:37:33;3.60;;;1.13;;
52742;SDS011;55583;53.012;6.556;2022-09-13T16:39:59;14.25;;;1.77;;
52742;SDS011;55583;53.012;6.556;2022-09-13T16:42:25;6.22;;;1.02;;
52742;SDS011;55583;53.012;6.556;2022-09-13T16:44:51;9.55;;;1.77;;
52742;SDS011;55583;53.012;6.556;2022-09-13T16:47:16;5.68;;;1.33;;
52742;SDS011;55583;53.012;6.556;2022-09-13T16:49:42;5.72;;;1.52;;
52742;SDS011;55583;53.012;6.556;2022-09-13T16:52:08;11.07;;;1.48;;
52742;SDS011;55583;53.012;6.556;2022-09-13T16:54:34;7.80;;;1.40;;
52742;SDS011;55583;53.012;6.556;2022-09-13T16:57:01;8.60;;;1.70;;
52742;SDS011;55583;53.012;6.556;2022-09-13T16:59:28;4.32;;;1.30;;
52742;SDS011;55583;53.012;6.556;2022-09-13T17:01:55;3.65;;;1.13;;
52742;SDS011;55583;53.012;6.556;2022-09-13T17:04:21;10.07;;;1.52;;
52742;SDS011;55583;53.012;6.556;2022-09-13T17:06:47;7.22;;;1.50;;
52742;SDS011;55583;53.012;6.556;2022-09-13T17:09:13;9.98;;;1.65;;
52742;SDS011;55583;53.012;6.556;2022-09-13T17:11:39;10.30;;;1.95;;
52742;SDS011;55583;53.012;6.556;2022-09-13T17:14:07;7.78;;;1.45;;
52742;SDS011;55583;53.012;6.556;2022-09-13T17:16:39;9.00;;;1.50;;
52742;SDS011;55583;53.012;6.556;2022-09-13T17:19:11;6.25;;;1.60;;
52742;SDS011;55583;53.012;6.556;2022-09-13T17:21:42;4.07;;;1.27;;
52742;SDS011;55583;53.012;6.556;2022-09-13T17:24:09;9.18;;;1.50;;
52742;SDS011;55583;53.012;6.556;2022-09-13T17:26:35;5.70;;;1.30;;
52742;SDS011;55583;53.012;6.556;2022-09-13T17:29:00;10.70;;;2.25;;
52742;SDS011;55583;53.012;6.556;2022-09-13T17:31:26;1.63;;;0.90;;
52742;SDS011;55583;53.012;6.556;2022-09-13T17:33:52;3.65;;;1.02;;
52742;SDS011;55583;53.012;6.556;2022-09-13T17:36:18;6.18;;;1.15;;
52742;SDS011;55583;53.012;6.556;2022-09-13T17:38:44;9.35;;;1.70;;
52742;SDS011;55583;53.012;6.556;2022-09-13T17:41:14;6.75;;;1.27;;
52742;SDS011;55583;53.012;6.556;2022-09-13T17:43:41;4.40;;;0.77;;
52742;SDS011;55583;53.012;6.556;2022-09-13T17:46:12;5.95;;;1.90;;
52742;SDS011;55583;53.012;6.556;2022-09-13T17:48:39;11.77;;;1.50;;
52742;SDS011;55583;53.012;6.556;2022-09-13T17:51:15;6.82;;;1.65;;
52742;SDS011;55583;53.012;6.556;2022-09-13T17:53:46;2.90;;;1.05;;
52742;SDS011;55583;53.012;6.556;2022-09-13T17:56:25;8.48;;;2.08;;
52742;SDS011;55583;53.012;6.556;2022-09-13T17:58:56;14.10;;;1.63;;
52742;SDS011;55583;53.012;6.556;2022-09-13T18:01:27;6.28;;;1.30;;
52742;SDS011;55583;53.012;6.556;2022-09-13T18:03:53;9.38;;;2.00;;
52742;SDS011;55583;53.012;6.556;2022-09-13T18:06:19;9.43;;;1.90;;
52742;SDS011;55583;53.012;6.556;2022-09-13T18:08:45;8.38;;;1.50;;
52742;SDS011;55583;53.012;6.556;2022-09-13T18:11:12;5.75;;;1.50;;
52742;SDS011;55583;53.012;6.556;2022-09-13T18:13:40;10.68;;;1.38;;
52742;SDS011;55583;53.012;6.556;2022-09-13T18:16:08;9.25;;;1.40;;
52742;SDS011;55583;53.012;6.556;2022-09-13T18:18:42;4.15;;;1.20;;
52742;SDS011;55583;53.012;6.556;2022-09-13T18:21:10;6.45;;;1.20;;
52742;SDS011;55583;53.012;6.556;2022-09-13T18:23:38;9.93;;;1.70;;
52742;SDS011;55583;53.012;6.556;2022-09-13T18:26:06;8.82;;;1.50;;